createdAt,value
2022-08-16T00:00:21.945Z,4.50
2022-08-16T00:03:13.260Z,4.50
2022-08-16T00:05:58.938Z,4.63
2022-08-16T00:08:45.693Z,4.82
2022-08-16T00:11:31.245Z,4.50
2022-08-16T00:14:22.469Z,5.30
2022-08-16T00:17:19.419Z,4.68
2022-08-16T00:20:08.989Z,5.13
2022-08-16T00:22:57.906Z,4.70
2022-08-16T00:26:35.815Z,4.88
2022-08-16T00:28:48.821Z,5.07
2022-08-16T00:31:47.181Z,5.03
2022-08-16T00:34:53.032Z,5.35
2022-08-16T00:37:56.381Z,5.20
2022-08-16T00:40:50.575Z,5.50
2022-08-16T00:43:42.981Z,5.78
2022-08-16T00:46:52.886Z,5.75
2022-08-16T00:49:56.270Z,5.82
2022-08-16T00:52:50.666Z,5.85
2022-08-16T00:55:41.223Z,5.88
2022-08-16T00:58:34.926Z,5.80
2022-08-16T01:01:21.216Z,6.15
2022-08-16T01:04:29.626Z,5.88
2022-08-16T01:07:13.173Z,6.10
2022-08-16T01:12:47.964Z,6.10
2022-08-16T01:15:36.081Z,6.50
2022-08-16T01:18:40.456Z,6.45
2022-08-16T01:21:44.931Z,7.15
2022-08-16T01:24:53.912Z,6.85
2022-08-16T01:27:54.390Z,6.75
2022-08-16T01:30:49.885Z,7.50
2022-08-16T01:33:36.125Z,7.10
2022-08-16T01:36:21.847Z,7.35
2022-08-16T01:39:15.724Z,7.72
2022-08-16T01:42:01.890Z,7.93
2022-08-16T01:44:48.991Z,7.07
2022-08-16T01:47:39.520Z,6.90
2022-08-16T01:50:41.867Z,7.97
2022-08-16T01:53:41.320Z,7.50
2022-08-16T01:56:27.596Z,7.22
2022-08-16T01:59:15.481Z,7.88
2022-08-16T02:02:00.958Z,7.95
2022-08-16T02:04:48.893Z,8.43
2022-08-16T02:07:40.152Z,7.78
2022-08-16T02:10:29.228Z,7.95
2022-08-16T02:13:14.505Z,8.60
2022-08-16T02:15:59.859Z,7.88
2022-08-16T02:18:45.343Z,7.50
2022-08-16T02:21:32.198Z,7.40
2022-08-16T02:24:31.912Z,7.85
2022-08-16T02:27:18.412Z,7.65
2022-08-16T02:30:06.807Z,7.97
2022-08-16T02:32:53.554Z,8.73
2022-08-16T02:35:54.016Z,8.05
2022-08-16T02:38:43.572Z,8.18
2022-08-16T02:41:31.677Z,7.95
2022-08-16T02:44:19.829Z,8.07
2022-08-16T02:47:05.178Z,8.73
2022-08-16T02:49:59.070Z,8.18
2022-08-16T02:52:55.800Z,8.30
2022-08-16T02:55:41.627Z,8.68
2022-08-16T02:58:27.128Z,8.80
2022-08-16T03:01:24.617Z,9.15
2022-08-16T03:04:28.718Z,8.70
2022-08-16T03:07:14.863Z,8.43
2022-08-16T03:10:00.402Z,8.93
2022-08-16T03:12:55.896Z,8.93
2022-08-16T03:15:41.578Z,9.30
2022-08-16T03:18:34.732Z,9.02
2022-08-16T03:21:25.617Z,9.73
2022-08-16T03:24:28.690Z,9.55
2022-08-16T03:27:14.558Z,9.63
2022-08-16T03:30:16.518Z,9.77
2022-08-16T03:33:03.552Z,9.70
2022-08-16T03:35:48.552Z,10.38
2022-08-16T03:38:42.449Z,10.38
2022-08-16T03:41:29.494Z,10.68
2022-08-16T03:44:43.242Z,10.10
2022-08-16T03:47:34.200Z,10.60
2022-08-16T03:50:20.340Z,10.75
2022-08-16T03:53:11.801Z,10.43
2022-08-16T03:55:57.234Z,11.18
2022-08-16T03:58:42.466Z,10.43
2022-08-16T04:01:30.001Z,10.80
2022-08-16T04:04:30.921Z,11.07
2022-08-16T04:07:19.001Z,10.75
2022-08-16T04:10:11.448Z,11.32
2022-08-16T04:13:20.719Z,10.77
2022-08-16T04:16:26.451Z,10.13
2022-08-16T04:19:13.602Z,9.82
2022-08-16T04:22:00.844Z,11.07
2022-08-16T04:24:55.355Z,10.90
2022-08-16T04:27:55.751Z,11.40
2022-08-16T04:30:41.579Z,11.13
2022-08-16T04:33:28.792Z,12.07
2022-08-16T04:36:19.916Z,10.75
2022-08-16T04:39:05.541Z,10.93
2022-08-16T04:41:56.927Z,10.65
2022-08-16T04:44:53.434Z,11.25
2022-08-16T04:47:41.808Z,11.45
2022-08-16T04:50:30.510Z,10.95
2022-08-16T04:53:16.574Z,11.73
2022-08-16T04:56:04.853Z,11.63
2022-08-16T04:58:57.713Z,11.15
2022-08-16T05:01:56.071Z,10.00
2022-08-16T05:04:43.868Z,11.65
2022-08-16T05:07:29.466Z,11.82
2022-08-16T05:10:19.869Z,11.60
2022-08-16T05:13:08.563Z,12.02
2022-08-16T05:16:00.828Z,12.00
2022-08-16T05:18:46.823Z,11.10
2022-08-16T05:21:35.683Z,10.82
2022-08-16T05:24:24.750Z,11.27
2022-08-16T05:27:11.210Z,12.30
2022-08-16T05:30:01.955Z,12.38
2022-08-16T05:33:01.882Z,12.02
2022-08-16T05:35:54.584Z,12.73
2022-08-16T05:38:41.024Z,12.63
2022-08-16T05:41:26.271Z,11.88
2022-08-16T05:44:22.563Z,12.32
2022-08-16T05:47:09.851Z,12.98
2022-08-16T05:50:00.816Z,12.93
2022-08-16T05:52:47.539Z,12.60
2022-08-16T05:55:32.817Z,12.75
2022-08-16T05:58:32.932Z,12.82
2022-08-16T06:01:18.688Z,12.85
2022-08-16T06:04:12.888Z,11.73
2022-08-16T06:06:58.269Z,12.20
2022-08-16T06:09:46.895Z,11.60
2022-08-16T06:12:32.585Z,12.70
2022-08-16T06:15:19.888Z,12.07
2022-08-16T06:18:05.186Z,11.85
2022-08-16T06:20:55.103Z,11.27
2022-08-16T06:23:41.490Z,12.10
2022-08-16T06:26:37.035Z,11.85
2022-08-16T06:29:22.944Z,11.88
2022-08-16T06:32:09.126Z,11.48
2022-08-16T06:35:13.610Z,12.73
2022-08-16T06:37:58.962Z,13.77
2022-08-16T06:40:49.093Z,12.82
2022-08-16T06:43:35.033Z,12.73
2022-08-16T06:46:31.832Z,12.70
2022-08-16T06:49:17.874Z,11.88
2022-08-16T06:52:03.425Z,13.57
2022-08-16T06:54:49.985Z,12.50
2022-08-16T06:57:35.245Z,12.38
2022-08-16T07:00:25.480Z,12.90
2022-08-16T07:03:26.404Z,13.77
2022-08-16T07:06:13.301Z,13.70
2022-08-16T07:08:59.954Z,13.95
2022-08-16T07:11:51.528Z,14.68
2022-08-16T07:14:37.053Z,14.02
2022-08-16T07:17:22.981Z,13.00
2022-08-16T07:20:35.188Z,14.05
2022-08-16T07:23:15.649Z,13.13
2022-08-16T07:26:00.825Z,14.98
2022-08-16T07:28:46.175Z,14.43
2022-08-16T07:31:37.910Z,14.25
2022-08-16T07:34:35.784Z,13.77
2022-08-16T07:37:28.389Z,13.77
2022-08-16T07:40:15.049Z,13.93
2022-08-16T07:43:01.011Z,13.35
2022-08-16T07:45:51.271Z,13.27
2022-08-16T07:48:38.255Z,13.57
2022-08-16T07:51:23.530Z,13.77
2022-08-16T07:54:10.930Z,13.95
2022-08-16T07:56:59.682Z,14.40
2022-08-16T07:59:46.651Z,14.68
2022-08-16T08:02:31.778Z,14.30
2022-08-16T08:05:17.386Z,13.68
2022-08-16T08:08:11.821Z,15.95
2022-08-16T08:11:18.333Z,13.90
2022-08-16T08:14:06.818Z,14.20
2022-08-16T08:16:53.453Z,13.95
2022-08-16T08:19:40.335Z,13.20
2022-08-16T08:22:26.261Z,14.70
2022-08-16T08:25:14.134Z,14.98
2022-08-16T08:28:03.429Z,14.40
2022-08-16T08:31:02.651Z,15.00
2022-08-16T08:33:51.477Z,14.60
2022-08-16T08:36:37.230Z,16.30
2022-08-16T08:39:24.062Z,14.57
2022-08-16T08:42:09.522Z,14.70
2022-08-16T08:44:54.853Z,15.43
2022-08-16T08:47:40.593Z,14.63
2022-08-16T08:50:32.012Z,15.93
2022-08-16T08:53:17.561Z,15.02
2022-08-16T08:56:22.591Z,14.82
2022-08-16T08:59:13.672Z,14.93
2022-08-16T09:02:08.781Z,15.27
2022-08-16T09:04:57.238Z,15.60
2022-08-16T09:08:00.286Z,12.95
2022-08-16T09:10:47.107Z,13.85
2022-08-16T09:13:47.113Z,14.85
2022-08-16T09:17:03.429Z,13.38
2022-08-16T09:19:40.896Z,13.73
2022-08-16T09:22:28.191Z,14.52
2022-08-16T09:25:14.605Z,15.48
2022-08-16T09:28:02.721Z,15.25
2022-08-16T09:30:54.989Z,15.88
2022-08-16T09:33:40.660Z,16.85
2022-08-16T09:36:32.123Z,15.57
2022-08-16T09:39:18.307Z,16.08
2022-08-16T09:42:03.795Z,16.80
2022-08-16T09:45:11.179Z,16.27
2022-08-16T09:47:56.617Z,15.55
2022-08-16T09:50:44.288Z,14.60
2022-08-16T09:53:29.775Z,14.30
2022-08-16T09:56:26.414Z,14.82
2022-08-16T09:59:13.163Z,13.10
2022-08-16T10:02:00.856Z,13.82
2022-08-16T10:05:06.328Z,11.93
2022-08-16T10:07:56.663Z,10.98
2022-08-16T10:11:03.069Z,11.10
2022-08-16T10:13:55.807Z,11.00
2022-08-16T10:16:41.001Z,11.88
2022-08-16T10:19:26.713Z,11.80
2022-08-16T10:22:12.961Z,11.43
2022-08-16T10:25:00.015Z,11.73
2022-08-16T10:27:53.302Z,11.93
2022-08-16T10:30:43.191Z,12.88
2022-08-16T10:33:33.311Z,14.75
2022-08-16T10:36:39.317Z,16.50
2022-08-16T10:39:24.141Z,15.65
2022-08-16T10:42:13.173Z,16.55
2022-08-16T10:44:58.609Z,17.37
2022-08-16T10:47:44.154Z,13.38
2022-08-16T10:50:29.766Z,13.35
2022-08-16T10:53:17.664Z,10.18
2022-08-16T10:56:52.140Z,9.60
2022-08-16T10:59:38.849Z,12.00
2022-08-16T11:02:59.577Z,12.00
2022-08-16T11:05:27.251Z,9.63
2022-08-16T11:08:13.180Z,10.63
2022-08-16T11:11:04.909Z,11.23
2022-08-16T11:14:00.281Z,12.10
2022-08-16T11:17:10.563Z,13.30
2022-08-16T11:23:02.308Z,13.07
2022-08-16T11:26:23.344Z,17.15
2022-08-16T11:32:00.324Z,10.73
2022-08-16T11:35:09.973Z,9.13
2022-08-16T11:38:14.760Z,8.43
2022-08-16T11:41:03.416Z,9.80
2022-08-16T11:43:48.522Z,9.70
2022-08-16T11:46:44.300Z,9.60
2022-08-16T11:49:31.214Z,8.38
2022-08-16T11:52:17.801Z,8.43
2022-08-16T11:55:10.731Z,10.15
2022-08-16T11:57:57.371Z,7.90
2022-08-16T12:00:50.782Z,8.18
2022-08-16T12:03:37.314Z,7.35
2022-08-16T12:06:24.929Z,7.90
2022-08-16T12:09:10.814Z,7.82
2022-08-16T12:11:58.459Z,8.30
2022-08-16T12:14:48.337Z,7.28
2022-08-16T12:17:34.709Z,5.68
2022-08-16T12:20:29.647Z,6.05
2022-08-16T12:23:14.839Z,6.72
2022-08-16T12:26:02.247Z,6.63
2022-08-16T12:28:56.470Z,5.25
2022-08-16T12:32:01.187Z,3.10
2022-08-16T12:34:52.522Z,3.55
2022-08-16T12:37:38.957Z,4.55
2022-08-16T12:40:31.614Z,3.72
2022-08-16T12:43:18.404Z,3.85
2022-08-16T12:46:12.631Z,4.18
2022-08-16T12:49:00.769Z,4.20
2022-08-16T12:51:58.599Z,3.85
2022-08-16T12:54:45.257Z,3.88
2022-08-16T12:57:40.905Z,3.97
2022-08-16T13:00:33.168Z,3.30
2022-08-16T13:03:21.567Z,3.40
2022-08-16T13:06:07.325Z,3.75
2022-08-16T13:08:53.996Z,4.10
2022-08-16T13:11:49.078Z,3.50
2022-08-16T13:14:43.040Z,3.67
2022-08-16T13:17:29.892Z,3.53
2022-08-16T13:20:20.985Z,3.15
2022-08-16T13:23:09.093Z,3.22
2022-08-16T13:25:54.918Z,3.72
2022-08-16T13:28:40.222Z,4.00
2022-08-16T13:31:31.689Z,3.67
2022-08-16T13:34:17.836Z,4.10
2022-08-16T13:37:04.160Z,3.60
2022-08-16T13:39:49.459Z,3.33
2022-08-16T13:42:35.121Z,3.50
2022-08-16T13:45:27.391Z,3.72
2022-08-16T13:48:21.828Z,3.78
2022-08-16T13:51:17.153Z,3.10
2022-08-16T13:54:04.067Z,3.20
2022-08-16T13:56:49.813Z,3.38
2022-08-16T13:59:34.669Z,3.42
2022-08-16T14:02:20.744Z,3.50
2022-08-16T14:05:07.146Z,3.53
2022-08-16T14:07:56.520Z,3.35
2022-08-16T14:10:43.541Z,3.85
2022-08-16T14:13:28.598Z,3.65
2022-08-16T14:16:24.086Z,3.50
2022-08-16T14:19:22.478Z,3.85
2022-08-16T14:22:14.404Z,3.92
2022-08-16T14:25:03.228Z,4.30
2022-08-16T14:27:54.332Z,4.22
2022-08-16T14:30:40.647Z,4.57
2022-08-16T14:33:26.423Z,4.72
2022-08-16T14:36:25.053Z,5.03
2022-08-16T14:39:10.596Z,4.72
2022-08-16T14:42:03.695Z,5.68
2022-08-16T14:44:50.372Z,5.10
2022-08-16T14:47:38.223Z,5.40
2022-08-16T14:50:27.237Z,5.68
2022-08-16T14:53:13.186Z,5.90
2022-08-16T14:55:59.101Z,5.95
2022-08-16T14:58:44.273Z,6.38
2022-08-16T15:01:58.987Z,5.83
2022-08-16T15:04:40.493Z,6.20
2022-08-16T15:07:35.350Z,6.30
2022-08-16T15:10:24.488Z,7.28
2022-08-16T15:13:12.230Z,7.18
2022-08-16T15:16:02.267Z,8.27
2022-08-16T15:18:48.835Z,7.35
2022-08-16T15:21:35.318Z,7.03
2022-08-16T15:24:22.439Z,7.18
2022-08-16T15:27:08.403Z,7.22
2022-08-16T15:29:57.211Z,7.13
2022-08-16T15:32:43.090Z,6.80
2022-08-16T15:35:31.607Z,6.95
2022-08-16T15:38:54.863Z,6.90
2022-08-16T15:41:42.634Z,7.88
2022-08-16T15:44:38.924Z,7.63
2022-08-16T15:47:37.642Z,7.38
2022-08-16T15:50:24.513Z,6.93
2022-08-16T15:53:14.859Z,7.30
2022-08-16T15:56:02.040Z,7.10
2022-08-16T15:58:55.638Z,7.05
2022-08-16T16:01:40.926Z,7.07
2022-08-16T16:04:28.562Z,7.75
2022-08-16T16:07:13.838Z,8.13
2022-08-16T16:10:01.876Z,7.05
2022-08-16T16:12:53.285Z,7.53
2022-08-16T16:15:45.612Z,7.72
2022-08-16T16:18:34.310Z,7.90
2022-08-16T16:21:20.570Z,7.68
2022-08-16T16:24:21.492Z,7.30
2022-08-16T16:27:09.555Z,7.10
2022-08-16T16:30:01.582Z,7.28
2022-08-16T16:32:47.310Z,6.25
2022-08-16T16:35:34.841Z,7.35
2022-08-16T16:38:19.981Z,7.07
2022-08-16T16:41:11.133Z,7.00
2022-08-16T16:43:57.540Z,7.35
2022-08-16T16:46:43.945Z,6.30
2022-08-16T16:49:42.373Z,5.68
2022-08-16T16:52:44.228Z,6.50
2022-08-16T16:55:30.543Z,5.72
2022-08-16T16:58:36.735Z,5.28
2022-08-16T17:01:34.862Z,4.65
2022-08-16T17:04:23.942Z,4.75
2022-08-16T17:07:18.101Z,4.82
2022-08-16T17:10:10.241Z,5.18
2022-08-16T17:12:56.694Z,5.75
2022-08-16T17:15:41.980Z,5.30
2022-08-16T17:19:15.174Z,5.60
2022-08-16T17:21:34.334Z,4.80
2022-08-16T17:24:26.272Z,5.90
2022-08-16T17:27:32.396Z,5.65
2022-08-16T17:30:22.117Z,5.65
2022-08-16T17:33:15.990Z,5.97
2022-08-16T17:36:01.978Z,5.72
2022-08-16T17:38:47.518Z,5.20
2022-08-16T17:41:34.793Z,5.53
2022-08-16T17:44:20.555Z,5.30
2022-08-16T17:47:05.561Z,5.38
2022-08-16T17:49:50.861Z,5.88
2022-08-16T17:52:36.035Z,5.57
2022-08-16T17:55:36.858Z,5.53
2022-08-16T17:58:24.102Z,6.05
2022-08-16T18:01:10.395Z,5.88
2022-08-16T18:04:06.404Z,5.85
2022-08-16T18:06:55.038Z,5.45
2022-08-16T18:09:41.953Z,5.72
2022-08-16T18:12:51.182Z,6.47
2022-08-16T18:15:35.278Z,6.10
2022-08-16T18:18:20.700Z,5.30
2022-08-16T18:21:24.148Z,5.80
2022-08-16T18:24:11.041Z,5.60
2022-08-16T18:26:56.124Z,5.82
2022-08-16T18:29:42.749Z,5.95
2022-08-16T18:32:28.281Z,6.00
2022-08-16T18:35:15.433Z,5.22
2022-08-16T18:38:00.412Z,5.70
2022-08-16T18:40:46.110Z,5.85
2022-08-16T18:43:55.502Z,5.60
2022-08-16T18:46:39.818Z,5.88
2022-08-16T18:49:25.191Z,6.03
2022-08-16T18:52:14.736Z,5.60
2022-08-16T18:55:14.856Z,5.30
2022-08-16T18:58:01.158Z,5.90
2022-08-16T19:00:56.357Z,5.97
2022-08-16T19:03:42.168Z,6.00
2022-08-16T19:06:27.502Z,6.30
2022-08-16T19:09:12.748Z,5.85
2022-08-16T19:11:57.992Z,6.05
2022-08-16T19:14:45.301Z,5.40
2022-08-16T19:17:30.514Z,5.80
2022-08-16T19:20:18.482Z,5.90
2022-08-16T19:23:05.043Z,6.43
2022-08-16T19:26:05.586Z,5.93
2022-08-16T19:28:59.017Z,6.20
2022-08-16T19:31:45.350Z,5.90
2022-08-16T19:34:30.837Z,6.15
2022-08-16T19:37:15.810Z,6.18
2022-08-16T19:40:01.501Z,6.35
2022-08-16T19:42:48.408Z,6.30
2022-08-16T19:45:33.520Z,6.20
2022-08-16T19:48:18.693Z,6.80
2022-08-16T19:51:03.949Z,6.20
2022-08-16T19:53:49.309Z,6.60
2022-08-16T19:56:34.449Z,6.35
2022-08-16T19:59:39.523Z,7.22
2022-08-16T20:02:36.688Z,6.90
2022-08-16T20:05:28.179Z,7.35
2022-08-16T20:08:13.590Z,7.47
2022-08-16T20:10:58.726Z,7.35
2022-08-16T20:13:43.962Z,7.80
2022-08-16T20:16:29.717Z,7.97
2022-08-16T20:19:14.689Z,8.60
2022-08-16T20:22:02.564Z,8.07
2022-08-16T20:24:49.418Z,7.78
2022-08-16T20:27:35.276Z,8.95
2022-08-16T20:30:20.639Z,9.77
2022-08-16T20:33:14.056Z,8.50
2022-08-16T20:35:59.025Z,8.27
2022-08-16T20:38:46.993Z,8.52
2022-08-16T20:41:32.574Z,8.27
2022-08-16T20:44:17.979Z,7.85
2022-08-16T20:47:09.673Z,7.90
2022-08-16T20:49:54.887Z,8.10
2022-08-16T20:52:40.108Z,10.00
2022-08-16T20:55:26.315Z,8.95
2022-08-16T20:58:13.923Z,8.87
2022-08-16T21:00:59.885Z,8.95
2022-08-16T21:03:44.970Z,8.95
2022-08-16T21:06:30.330Z,10.30
2022-08-16T21:09:15.678Z,9.15
2022-08-16T21:12:04.664Z,8.52
2022-08-16T21:14:51.693Z,8.23
2022-08-16T21:17:36.548Z,8.27
2022-08-16T21:20:23.489Z,8.23
2022-08-16T21:23:10.941Z,8.70
2022-08-16T21:25:59.251Z,8.68
2022-08-16T21:28:45.542Z,10.63
2022-08-16T21:31:31.006Z,11.30
2022-08-16T21:34:16.298Z,11.10
2022-08-16T21:37:01.382Z,11.93
2022-08-16T21:39:46.697Z,10.98
2022-08-16T21:42:36.116Z,11.85
2022-08-16T21:48:07.875Z,11.68
2022-08-16T21:50:52.944Z,11.45
2022-08-16T21:53:38.965Z,11.23
2022-08-16T21:56:24.259Z,11.68
2022-08-16T21:59:11.007Z,11.05
2022-08-16T22:01:56.344Z,10.18
2022-08-16T22:04:41.494Z,10.30
2022-08-16T22:07:26.765Z,10.02
2022-08-16T22:11:05.113Z,9.20
2022-08-16T22:13:23.307Z,8.73
2022-08-16T22:16:08.683Z,8.52
2022-08-16T22:18:53.826Z,9.15
2022-08-16T22:21:39.084Z,8.98
2022-08-16T22:24:24.257Z,9.02
2022-08-16T22:27:09.402Z,9.25
2022-08-16T22:29:58.381Z,10.13
2022-08-16T22:32:44.473Z,10.10
2022-08-16T22:35:29.457Z,9.85
2022-08-16T22:38:53.886Z,9.65
2022-08-16T22:41:21.819Z,10.00
2022-08-16T22:44:07.531Z,9.45
2022-08-16T22:46:52.638Z,10.25
2022-08-16T22:49:37.790Z,10.77
2022-08-16T22:52:48.919Z,10.25
2022-08-16T22:55:29.013Z,11.48
2022-08-16T22:58:13.994Z,10.93
2022-08-16T23:00:59.161Z,11.27
2022-08-16T23:03:44.438Z,11.13
2022-08-16T23:06:30.853Z,10.68
2022-08-16T23:09:15.743Z,11.60
2022-08-16T23:12:03.800Z,12.05
2022-08-16T23:14:49.008Z,11.90
2022-08-16T23:17:40.115Z,11.98
2022-08-16T23:20:28.418Z,12.35
2022-08-16T23:23:19.344Z,12.60
2022-08-16T23:26:46.782Z,12.60
2022-08-16T23:29:15.934Z,13.52
2022-08-16T23:32:11.806Z,14.82
2022-08-16T23:34:56.725Z,14.10
2022-08-16T23:37:43.865Z,13.23
2022-08-16T23:40:30.399Z,14.88
2022-08-16T23:43:22.231Z,14.60
2022-08-16T23:46:08.641Z,15.15
2022-08-16T23:49:56.344Z,15.07
2022-08-16T23:52:07.537Z,14.25
2022-08-16T23:54:52.902Z,13.77
2022-08-16T23:57:38.113Z,14.23
